Fall Creek, Oregon
Current Conditions -  °F | °C
As of 11:54 AM on Sunday 25 Jan 2015 (Local Time) from KEUG Reporting Station
Moderate Fog Moderate Fog  
Wind Chill: 46°   Ceiling: 200
Heat Index: 46°   Visibility: 0.25mi
Dew Point: 45°   Wind: 0mph
Humidity: 96%   Direction: NA
Pressure: 30.14"   Gusts: NA
Location:  43.96°N, 122.82°W
Report Text: KEUG 251954Z 00000KT 1/4SM R16R/1400FT FG VV002 08/07 A3014 RMK AO2 SLP209 T00780072 $
Loading
Personal Weather Stations






























Interactive Weather Map New forecast layout! Learn more

10-Day Weather Forecast

Advertisements
Track Severe Weather on mobile